»·PEaware :: N7355A KBUR-KSNA

N7355A :: KBUR-KSNA

FLIGHT INFORMATION

Flight Status: Arrived
Operator: Privately registered:
United States
More flights under this callsign
Pilot: Monte T. (31546)
Aircraft: CESSNA 172 SKYHAWK
(C172)
More flights by this aircraft type
Origin: KBUR Bob Hope-Burbank
United States
Destination: KSNA John Wayne-Orange Co
United States
More flights between these airports :: More routes between these airports
Route: ELMOO9 ELMOO V186 BAYJY V363 POXKU V8 SLI
File this flight plan on PilotEdge
Remarks: TEC route BURP20
Altitude:
(Current/Filed)
5,000ft
Speed:
(Current/Filed)
120kts
Departed: 10-Jan-21 05:10 PM
Arrived: 10-Jan-21 05:37 PM
Distance/Time
Traveled:
40nm/0:27
Distance/Time
To Go:
Arrived

Flight Plot

Page will automatically refresh every two minutes.

Flight plan parsing failed; only flown route is shown


Map Options




Map Legend


Flown Route
Filed Route
Departure Airport
Arrival Airport
Navaid (VOR, NDB)
Fix

Horizontal Profiles

Position Reports

Time Latitude Longitude Heading Altitude Ground
Speed
10-Jan-21 16:45 34.200211 -118.358868 280 721ft 0kts
10-Jan-21 16:46 34.200211 -118.358868 280 721ft 0kts
10-Jan-21 16:47 34.200211 -118.358868 280 721ft 0kts
10-Jan-21 16:48 34.200211 -118.358868 280 721ft 0kts
10-Jan-21 16:49 34.200211 -118.358868 280 721ft 0kts
10-Jan-21 16:50 34.200211 -118.358868 280 721ft 0kts
10-Jan-21 16:51 34.200211 -118.358868 280 721ft 0kts
10-Jan-21 16:52 34.200211 -118.358868 280 721ft 0kts
10-Jan-21 16:53 34.200211 -118.358868 280 721ft 0kts
10-Jan-21 16:54 34.200211 -118.358868 280 721ft 0kts
10-Jan-21 16:55 34.200211 -118.358868 280 721ft 0kts
10-Jan-21 16:56 34.200211 -118.358868 280 721ft 0kts
10-Jan-21 16:57 34.200211 -118.358868 280 721ft 0kts
10-Jan-21 16:58 34.200211 -118.358868 280 721ft 0kts
10-Jan-21 16:59 34.200211 -118.358868 280 721ft 0kts
10-Jan-21 17:00 34.200211 -118.358868 280 721ft 0kts
10-Jan-21 17:01 34.200211 -118.358868 280 721ft 0kts
10-Jan-21 17:02 34.200131 -118.359009 198 721ft 6kts
10-Jan-21 17:03 34.202737 -118.358959 346 731ft 24kts
10-Jan-21 17:04 34.209942 -118.360944 347 762ft 24kts
10-Jan-21 17:05 34.211625 -118.361169 31 767ft 0kts
10-Jan-21 17:06 34.211625 -118.361169 31 767ft 0kts
10-Jan-21 17:07 34.211798 -118.360396 125 766ft 9kts
10-Jan-21 17:08 34.211046 -118.360133 166 764ft 33kts
10-Jan-21 17:09 34.190925 -118.346729 125 1393ft 101kts
10-Jan-21 17:10 34.174438 -118.318077 124 2196ft 105kts
10-Jan-21 17:11 34.157883 -118.289254 124 2997ft 103kts
10-Jan-21 17:12 34.141908 -118.260752 117 3795ft 102kts
10-Jan-21 17:13 34.134141 -118.228938 89 4594ft 99kts
10-Jan-21 17:14 34.130134 -118.193700 103 5002ft 121kts
10-Jan-21 17:15 34.119949 -118.153069 108 5000ft 128kts
10-Jan-21 17:16 34.108045 -118.112422 109 4999ft 128kts
10-Jan-21 17:17 34.095723 -118.072027 110 4999ft 128kts
10-Jan-21 17:19 34.083334 -118.031672 110 4999ft 128kts
10-Jan-21 17:20 34.070980 -117.991479 110 4999ft 128kts
10-Jan-21 17:21 34.058537 -117.951034 110 4999ft 128kts
10-Jan-21 17:22 34.046114 -117.910711 110 4999ft 128kts
10-Jan-21 17:23 34.033636 -117.870271 110 4999ft 128kts
10-Jan-21 17:24 34.021205 -117.830056 110 4999ft 128kts
10-Jan-21 17:25 34.005874 -117.791929 147 4997ft 128kts
10-Jan-21 17:26 33.971137 -117.784919 177 4999ft 128kts
10-Jan-21 17:27 33.936373 -117.780239 140 5000ft 127kts
10-Jan-21 17:28 33.905202 -117.759153 151 4298ft 120kts
10-Jan-21 17:29 33.873215 -117.755514 181 3494ft 117kts
10-Jan-21 17:30 33.841506 -117.759704 200 3001ft 116kts
10-Jan-21 17:31 33.813236 -117.778853 214 2919ft 110kts
10-Jan-21 17:32 33.787240 -117.797930 208 2447ft 115kts
10-Jan-21 17:33 33.759486 -117.815668 207 1804ft 109kts
10-Jan-21 17:33 33.736744 -117.830110 207 1331ft 112kts
10-Jan-21 17:35 33.705829 -117.849728 207 636ft 87kts
10-Jan-21 17:36 33.685829 -117.862370 207 234ft 77kts
10-Jan-21 17:37 33.678079 -117.868394 275 60ft 0kts
10-Jan-21 17:37 33.677979 -117.868803 229 60ft 10kts
10-Jan-21 17:38 33.675968 -117.871074 219 60ft 0kts
10-Jan-21 17:39 33.675968 -117.871074 219 60ft 0kts
10-Jan-21 17:40 33.675968 -117.871074 219 60ft 0kts

Navigation Log

Ident Type
Flight plan parsing failed, navigation log unavailable